Time;durP1;ratioP1;P1;durP2;ratioP2;P2;SDS_P1;SDS_P2;PMS_P1;PMS_P2;Temp;Humidity;BMP_temperature;BMP_pressure;BME280_temperature;BME280_humidity;BME280_pressure;Samples;Min_cycle;Max_cycle;Signal;HPM_P1;HPM_P2
2022/10/13 00:00:48;;;;;;;0.10;0.10;;;;;;;16.71;43.22;95838.72;5098179;28;20938;-69
2022/10/13 00:03:16;;;;;;;0.30;0.30;;;;;;;16.56;43.53;95836.13;5112866;27;20523;-70
2022/10/13 00:05:45;;;;;;;0.10;0.10;;;;;;;16.55;43.63;95839.03;5112559;28;20624;-68
2022/10/13 00:08:14;;;;;;;0.97;0.97;;;;;;;16.60;42.46;95831.88;5102530;28;20488;-69
2022/10/13 00:10:45;;;;;;;0.20;0.20;;;;;;;16.62;42.30;95840.34;5109223;28;20432;-71
2022/10/13 00:13:12;;;;;;;2.53;1.03;;;;;;;16.54;42.45;95843.53;5103360;28;21020;-70
2022/10/13 00:15:41;;;;;;;1.00;0.70;;;;;;;16.52;42.00;95837.72;5091507;28;21026;-69
2022/10/13 00:18:08;;;;;;;0.43;0.43;;;;;;;16.37;43.03;95835.06;5104613;28;20956;-70
2022/10/13 00:20:41;;;;;;;0.17;0.17;;;;;;;16.34;44.12;95840.91;5106336;28;20527;-71
2022/10/13 00:23:08;;;;;;;0.13;0.13;;;;;;;16.32;44.48;95823.72;5099461;28;20551;-70
2022/10/13 00:25:43;;;;;;;0.30;0.30;;;;;;;16.36;43.75;95819.47;5097563;28;20480;-70
2022/10/13 00:28:29;;;;;;;0.00;0.00;;;;;;;16.22;44.69;95830.59;5100117;28;20882;-70
2022/10/13 00:30:56;;;;;;;0.43;0.43;;;;;;;16.19;45.09;95809.19;5110743;28;20444;-70
2022/10/13 00:33:23;;;;;;;0.00;0.00;;;;;;;16.00;45.10;95811.59;5099782;28;20476;-69
2022/10/13 00:35:50;;;;;;;0.10;0.10;;;;;;;16.11;45.22;95828.25;5098497;28;20445;-70
2022/10/13 00:38:19;;;;;;;0.20;0.20;;;;;;;16.26;44.72;95820.28;5092121;28;20812;-69
2022/10/13 00:40:47;;;;;;;0.43;0.43;;;;;;;16.07;45.08;95816.63;5100297;28;20533;-69
2022/10/13 00:43:26;;;;;;;0.33;0.33;;;;;;;16.01;45.38;95815.84;5102203;28;20448;-69
2022/10/13 00:45:53;;;;;;;0.60;0.60;;;;;;;16.11;45.02;95813.16;5097094;28;20483;-69
2022/10/13 00:48:25;;;;;;;0.73;0.73;;;;;;;16.19;45.60;95814.47;5111896;28;20962;-69
2022/10/13 00:50:52;;;;;;;0.30;0.30;;;;;;;16.15;45.28;95805.50;5104385;28;20441;-69
2022/10/13 00:53:22;;;;;;;0.10;0.10;;;;;;;16.15;45.04;95808.94;5091819;28;20524;-68
2022/10/13 00:55:51;;;;;;;0.40;0.40;;;;;;;16.15;45.23;95805.50;5111956;28;20440;-69
2022/10/13 00:58:24;;;;;;;1.60;0.80;;;;;;;15.99;45.26;95799.44;5099672;28;20523;-68
2022/10/13 01:00:52;;;;;;;0.50;0.30;;;;;;;15.99;45.61;95803.94;5110051;28;20429;-69
2022/10/13 01:03:20;;;;;;;1.77;0.73;;;;;;;16.07;44.95;95812.13;5104185;28;20955;-68
2022/10/13 01:05:49;;;;;;;0.60;0.40;;;;;;;16.06;45.29;95807.09;5107021;28;20485;-71
2022/10/13 01:08:18;;;;;;;0.20;0.20;;;;;;;16.09;45.33;95812.63;5091065;28;20443;-70
2022/10/13 01:10:46;;;;;;;1.27;0.83;;;;;;;16.05;45.27;95813.47;5090968;28;20658;-71
2022/10/13 01:13:33;;;;;;;0.43;0.43;;;;;;;16.11;44.52;95809.75;5101453;28;20440;-72
2022/10/13 01:16:14;;;;;;;0.33;0.33;;;;;;;16.05;45.70;95808.16;5111444;28;20452;-69
2022/10/13 01:19:07;;;;;;;0.87;0.60;;;;;;;15.93;45.95;95797.09;5099222;28;20812;-70
2022/10/13 01:21:43;;;;;;;0.27;0.27;;;;;;;15.83;46.14;95810.31;5091299;28;20468;-69
2022/10/13 01:24:35;;;;;;;0.47;0.47;;;;;;;15.96;45.75;95815.84;5107548;28;20447;-68
2022/10/13 01:27:11;;;;;;;0.43;0.43;;;;;;;15.93;46.38;95810.31;5103584;28;20448;-68
2022/10/13 01:30:02;;;;;;;0.47;0.47;;;;;;;15.97;46.31;95806.06;5096807;28;20443;-71
2022/10/13 01:32:59;;;;;;;0.70;0.70;;;;;;;15.79;46.73;95809.25;5110657;28;20503;-70
2022/10/13 01:36:08;;;;;;;0.30;0.30;;;;;;;15.72;46.99;95808.72;5100049;28;20436;-69
2022/10/13 01:38:43;;;;;;;0.30;0.30;;;;;;;15.67;46.63;95811.38;5090991;28;20437;-69
2022/10/13 01:41:19;;;;;;;2.60;0.83;;;;;;;15.70;46.40;95810.84;5090862;28;20440;-69
2022/10/13 01:43:52;;;;;;;0.37;0.37;;;;;;;14.54;48.41;95809.78;5090603;28;20472;-70
2022/10/13 01:46:44;;;;;;;0.37;0.37;;;;;;;14.97;48.42;95810.19;5103449;28;20534;-70
2022/10/13 01:49:15;;;;;;;0.40;0.40;;;;;;;14.27;49.91;95812.53;5108262;28;20444;-71
2022/10/13 01:51:43;;;;;;;0.27;0.27;;;;;;;14.86;48.33;95800.66;5096585;28;20441;-70
2022/10/13 01:54:10;;;;;;;0.30;0.30;;;;;;;15.14;48.34;95808.09;5111135;28;20464;-69
2022/10/13 01:56:37;;;;;;;0.00;0.00;;;;;;;15.31;47.96;95801.81;5111218;28;20440;-70
2022/10/13 01:59:10;;;;;;;0.50;0.50;;;;;;;15.46;47.90;95809.75;5110389;28;20471;-72
2022/10/13 02:01:50;;;;;;;0.00;0.00;;;;;;;15.32;47.55;95804.19;5096662;28;20437;-71
2022/10/13 02:04:22;;;;;;;0.30;0.30;;;;;;;15.42;47.69;95804.22;5090104;28;20437;-69
2022/10/13 02:07:00;;;;;;;6.33;1.23;;;;;;;15.48;47.03;95802.38;5089904;28;20523;-71
2022/10/13 02:09:33;;;;;;;0.50;0.50;;;;;;;15.35;47.07;95797.56;5090102;28;21046;-69
2022/10/13 02:12:19;;;;;;;0.00;0.00;;;;;;;15.49;47.35;95803.97;5101843;28;20481;-71
2022/10/13 02:14:49;;;;;;;0.17;0.17;;;;;;;15.42;47.54;95808.72;5098438;28;20873;-71
2022/10/13 02:17:16;;;;;;;2.90;1.83;;;;;;;15.48;47.31;95810.28;5109347;28;20535;-71
2022/10/13 02:19:44;;;;;;;0.57;0.57;;;;;;;15.33;47.48;95799.72;5103854;28;20525;-71
2022/10/13 02:22:13;;;;;;;3.27;1.70;;;;;;;15.40;47.38;95797.59;5101949;28;20531;-70
2022/10/13 02:24:41;;;;;;;0.10;0.10;;;;;;;15.14;48.18;95791.50;5104250;28;20432;-72
2022/10/13 02:27:08;;;;;;;0.97;0.97;;;;;;;15.15;48.15;95783.31;5089908;28;20532;-70
2022/10/13 02:30:05;;;;;;;2.20;0.87;;;;;;;15.19;48.33;95781.72;5093656;28;20471;-70
2022/10/13 02:32:32;;;;;;;8.80;1.50;;;;;;;15.11;48.73;95786.72;5109548;28;20440;-72
2022/10/13 02:34:59;;;;;;;1.33;1.07;;;;;;;15.32;47.69;95787.53;5103313;28;20899;-70
2022/10/13 02:37:26;;;;;;;1.03;1.03;;;;;;;15.21;48.34;95773.53;5102175;28;21063;-72
2022/10/13 02:39:53;;;;;;;0.50;0.50;;;;;;;15.32;48.16;95790.19;5095861;28;20436;-71
2022/10/13 02:42:19;;;;;;;0.60;0.60;;;;;;;15.16;48.38;95784.09;5095470;28;20817;-70
2022/10/13 02:44:47;;;;;;;0.87;0.87;;;;;;;14.93;49.70;95784.56;5109173;28;20697;-69
2022/10/13 02:47:14;;;;;;;1.20;1.03;;;;;;;14.96;49.52;95784.84;5109176;28;20955;-70
2022/10/13 02:49:41;;;;;;;1.10;1.10;;;;;;;15.09;49.16;95771.16;5109846;28;20517;-70
2022/10/13 02:52:07;;;;;;;2.63;1.23;;;;;;;15.16;49.06;95773.56;5095113;28;20535;-68
2022/10/13 02:54:40;;;;;;;0.87;0.63;;;;;;;15.16;48.89;95779.59;5099384;28;20798;-69
2022/10/13 02:57:07;;;;;;;0.37;0.33;;;;;;;15.20;48.56;95778.03;5103441;28;20584;-71
2022/10/13 02:59:34;;;;;;;2.87;1.70;;;;;;;14.98;49.39;95774.81;5098277;28;20436;-71
2022/10/13 03:02:01;;;;;;;1.17;0.93;;;;;;;15.12;48.45;95773.28;5095479;28;20445;-70
2022/10/13 03:04:28;;;;;;;3.47;2.30;;;;;;;15.24;48.52;95763.25;5102160;28;20448;-70
2022/10/13 03:06:57;;;;;;;1.10;1.07;;;;;;;15.25;47.49;95762.19;5102652;28;20974;-70
2022/10/13 03:09:24;;;;;;;0.50;0.50;;;;;;;14.99;48.36;95763.22;5094208;28;20512;-68
2022/10/13 03:11:51;;;;;;;1.27;1.17;;;;;;;14.94;49.07;95765.81;5089087;28;20437;-71
2022/10/13 03:14:18;;;;;;;1.67;1.53;;;;;;;15.05;48.39;95756.88;5093609;28;20460;-68
2022/10/13 03:16:45;;;;;;;0.30;0.30;;;;;;;15.09;48.53;95760.59;5098780;28;20944;-70
2022/10/13 03:19:12;;;;;;;1.93;1.17;;;;;;;15.18;48.53;95768.81;5091604;28;20948;-69
2022/10/13 03:21:39;;;;;;;1.33;1.23;;;;;;;15.12;48.55;95773.28;5108465;28;20436;-71
2022/10/13 03:24:06;;;;;;;4.33;1.60;;;;;;;14.96;48.27;95769.00;5095171;28;20445;-69
2022/10/13 03:26:34;;;;;;;1.87;1.13;;;;;;;15.08;48.99;95774.84;5101913;28;20985;-70
2022/10/13 03:29:01;;;;;;;1.70;1.60;;;;;;;14.95;48.87;95779.81;5106695;28;20505;-72
2022/10/13 03:31:28;;;;;;;2.17;1.00;;;;;;;14.88;48.74;95777.44;5107503;28;20528;-70
2022/10/13 03:34:02;;;;;;;1.70;1.07;;;;;;;14.93;48.81;95784.56;5105570;28;20428;-70
2022/10/13 03:36:28;;;;;;;1.77;1.67;;;;;;;14.77;49.06;95781.13;5103269;28;20504;-72
2022/10/13 03:38:55;;;;;;;2.67;1.13;;;;;;;14.72;49.10;95781.09;5105835;27;20790;-69
2022/10/13 03:41:22;;;;;;;2.67;2.03;;;;;;;14.78;49.79;95782.69;5101614;28;20449;-72
2022/10/13 03:43:49;;;;;;;1.67;1.50;;;;;;;14.65;49.49;95793.72;5106584;28;20475;-69
2022/10/13 03:46:17;;;;;;;2.37;1.70;;;;;;;14.20;52.20;95777.69;5096137;28;20480;-69
2022/10/13 03:48:46;;;;;;;1.03;1.03;;;;;;;14.64;50.36;95784.22;5096914;28;20463;-68
2022/10/13 03:51:18;;;;;;;1.03;1.03;;;;;;;14.83;49.86;95779.28;5093143;28;20803;-70
2022/10/13 03:53:49;;;;;;;0.23;0.23;;;;;;;14.75;49.54;95777.94;5106695;28;20499;-72
2022/10/13 03:56:22;;;;;;;0.30;0.30;;;;;;;14.40;52.49;95785.72;5102464;28;20850;-71
2022/10/13 03:58:53;;;;;;;1.50;0.93;;;;;;;14.68;50.69;95777.38;5095589;28;20445;-70
2022/10/13 04:01:25;;;;;;;0.30;0.30;;;;;;;14.69;50.47;95776.31;5096871;28;20460;-70
2022/10/13 04:03:54;;;;;;;2.13;1.93;;;;;;;14.50;51.11;95785.78;5094663;28;20452;-71
2022/10/13 04:06:22;;;;;;;0.37;0.37;;;;;;;14.76;49.74;95762.91;5097409;28;20483;-70
2022/10/13 04:08:49;;;;;;;0.30;0.30;;;;;;;14.24;51.87;95776.13;5105629;28;20439;-70
2022/10/13 04:11:16;;;;;;;0.90;0.90;;;;;;;14.53;51.40;95769.41;5093970;28;20472;-67
2022/10/13 04:13:49;;;;;;;5.17;1.13;;;;;;;14.56;51.51;95765.47;5092440;28;20430;-69
2022/10/13 04:16:22;;;;;;;1.00;0.90;;;;;;;14.88;50.51;95766.09;5092305;28;20437;-69
2022/10/13 04:18:58;;;;;;;2.23;1.63;;;;;;;14.98;49.61;95766.91;5097002;28;20444;-69
2022/10/13 04:24:13;;;;;;;0.20;0.20;;;;;;;14.52;51.29;95769.69;5097077;28;20455;-69
2022/10/13 04:26:40;;;;;;;0.80;0.80;;;;;;;14.54;51.06;95770.22;5102727;28;20579;-69
2022/10/13 04:29:09;;;;;;;1.40;1.30;;;;;;;14.80;51.16;95764.75;5100438;28;21076;-69
2022/10/13 04:31:37;;;;;;;1.23;1.20;;;;;;;14.16;52.65;95763.41;5098162;28;20486;-68
2022/10/13 04:34:06;;;;;;;2.17;0.90;;;;;;;14.78;50.71;95766.84;5105202;28;20970;-67
2022/10/13 04:36:33;;;;;;;1.03;1.03;;;;;;;14.44;52.19;95760.41;5105599;28;20436;-68
2022/10/13 04:39:02;;;;;;;2.57;1.53;;;;;;;14.89;50.03;95768.47;5112144;28;20444;-67
2022/10/13 04:41:31;;;;;;;1.50;1.33;;;;;;;14.50;50.81;95762.03;5102500;28;20965;-68
2022/10/13 04:44:01;;;;;;;1.27;1.13;;;;;;;14.54;51.20;95765.75;5092341;28;20567;-67
2022/10/13 04:46:28;;;;;;;0.57;0.57;;;;;;;14.03;52.25;95763.91;5106021;28;20635;-66
2022/10/13 04:48:55;;;;;;;1.73;1.63;;;;;;;14.51;51.05;95766.25;5110228;28;20444;-65
2022/10/13 04:51:27;;;;;;;3.33;2.47;;;;;;;14.88;49.60;95766.91;5091721;28;20536;-64
2022/10/13 04:54:00;;;;;;;7.67;6.90;;;;;;;14.98;49.85;95756.34;5091522;28;20451;-68
2022/10/13 04:56:27;;;;;;;4.30;2.13;;;;;;;14.58;52.94;95758.88;5091886;28;20873;-69
2022/10/13 04:58:58;;;;;;;0.90;0.90;;;;;;;14.72;51.75;95773.19;5105562;28;20476;-68
2022/10/13 05:01:26;;;;;;;1.33;1.23;;;;;;;14.90;51.32;95774.53;5097435;28;20827;-66
2022/10/13 05:03:55;;;;;;;7.83;3.07;;;;;;;14.91;51.90;95776.91;5091266;28;20475;-68
2022/10/13 05:06:27;;;;;;;6.90;5.20;;;;;;;15.38;50.99;95781.22;5090835;28;20815;-68
2022/10/13 05:08:55;;;;;;;1.37;1.27;;;;;;;15.25;50.62;95777.25;5097567;28;20966;-67
2022/10/13 05:11:23;;;;;;;0.40;0.40;;;;;;;14.85;51.90;95780.59;5111538;28;20440;-67
2022/10/13 05:13:50;;;;;;;0.57;0.57;;;;;;;14.66;52.53;95790.03;5091582;28;20437;-69
2022/10/13 05:16:20;;;;;;;2.67;2.47;;;;;;;15.06;52.40;95778.78;5091073;28;20433;-72
2022/10/13 05:18:48;;;;;;;1.80;1.70;;;;;;;15.01;52.44;95787.50;5094961;28;20444;-67
2022/10/13 05:21:18;;;;;;;8.17;2.30;;;;;;;14.59;53.95;95789.50;5111688;28;20473;-67
2022/10/13 05:23:45;;;;;;;0.77;0.77;;;;;;;14.41;54.48;95799.69;5111318;28;20441;-68
2022/10/13 05:26:15;;;;;;;0.97;0.97;;;;;;;14.97;53.25;95802.28;5101411;28;20465;-72
2022/10/13 05:28:43;;;;;;;1.90;1.20;;;;;;;15.36;51.52;95793.91;5103815;28;20428;-73
2022/10/13 05:31:21;;;;;;;2.70;1.13;;;;;;;15.35;51.81;95793.09;5090540;28;20482;-71
2022/10/13 05:33:50;;;;;;;1.80;1.27;;;;;;;15.55;50.62;95797.63;5105175;28;20475;-76
2022/10/13 05:36:28;;;;;;;1.37;1.00;;;;;;;15.40;51.44;95806.28;5090569;28;20429;-70
2022/10/13 05:38:58;;;;;;;0.80;0.80;;;;;;;15.29;52.34;95803.94;5104967;28;20851;-70
2022/10/13 05:41:26;;;;;;;0.30;0.30;;;;;;;15.49;51.28;95819.81;5091028;28;20476;-72
2022/10/13 05:43:57;;;;;;;1.80;1.70;;;;;;;15.49;51.35;95817.19;5091679;28;20468;-67
2022/10/13 05:46:25;;;;;;;1.80;1.23;;;;;;;15.33;52.15;95815.56;5113877;28;20479;-75
2022/10/13 05:48:52;;;;;;;3.50;2.90;;;;;;;15.53;51.80;95826.16;5099939;28;20477;-67
2022/10/13 05:51:30;;;;;;;1.13;1.03;;;;;;;15.38;52.05;95828.75;5091011;28;21249;-71
2022/10/13 05:54:21;;;;;;;1.67;1.20;;;;;;;15.73;51.35;95826.19;5109247;28;20448;-64
2022/10/13 05:57:19;;;;;;;7.20;2.43;;;;;;;15.71;51.16;95829.06;5096068;28;20449;-73
2022/10/13 05:59:57;;;;;;;0.50;0.50;;;;;;;15.74;51.17;95833.03;5089832;28;21002;-68
2022/10/13 06:02:27;;;;;;;0.67;0.67;;;;;;;15.83;51.18;95836.72;5108749;28;20825;-72
2022/10/13 06:04:56;;;;;;;1.40;1.30;;;;;;;15.91;50.89;95838.84;5110375;28;20478;-71
2022/10/13 06:07:23;;;;;;;0.57;0.57;;;;;;;15.79;50.70;95835.66;5110629;28;20621;-73
2022/10/13 06:09:50;;;;;;;3.33;1.57;;;;;;;15.86;50.38;95825.63;5110363;28;20444;-69
2022/10/13 06:12:17;;;;;;;1.47;1.40;;;;;;;15.69;51.28;95830.41;5110061;27;20821;-72
2022/10/13 06:14:44;;;;;;;1.17;1.17;;;;;;;15.75;51.17;95839.91;5102439;28;20425;-71
2022/10/13 06:17:11;;;;;;;0.30;0.30;;;;;;;15.85;51.09;95831.97;5089705;28;20449;-75
2022/10/13 06:19:41;;;;;;;1.87;1.50;;;;;;;15.82;50.97;95820.06;5090650;28;21039;-72
2022/10/13 06:22:08;;;;;;;2.80;2.30;;;;;;;16.09;50.47;95830.38;5090449;28;20876;-70
2022/10/13 06:24:35;;;;;;;1.40;1.20;;;;;;;15.63;51.91;95836.72;5104093;28;20817;-70
2022/10/13 06:27:05;;;;;;;1.27;1.10;;;;;;;16.00;50.97;95827.47;5089889;28;20476;-67
2022/10/13 06:29:32;;;;;;;2.60;1.43;;;;;;;16.09;50.45;95825.09;5108084;28;20468;-72
2022/10/13 06:31:59;;;;;;;2.57;2.37;;;;;;;15.96;51.67;95836.22;5110522;28;20935;-70
2022/10/13 06:34:26;;;;;;;0.30;0.30;;;;;;;16.36;50.67;95825.56;5110085;28;20440;-68
2022/10/13 06:36:53;;;;;;;1.33;1.23;;;;;;;16.49;50.39;95822.38;5110421;28;20948;-72
2022/10/13 06:39:20;;;;;;;1.60;1.50;;;;;;;16.32;51.13;95819.22;5095897;28;20459;-70
2022/10/13 06:41:47;;;;;;;1.67;1.57;;;;;;;15.97;51.42;95821.91;5098342;28;21030;-73
2022/10/13 06:44:13;;;;;;;2.33;1.80;;;;;;;15.67;52.59;95828.03;5107998;28;20467;-72
2022/10/13 06:46:41;;;;;;;2.60;2.40;;;;;;;15.99;51.23;95803.94;5109788;28;21381;-69
2022/10/13 06:49:09;;;;;;;2.10;1.90;;;;;;;16.09;51.69;95819.81;5108130;28;21022;-71
2022/10/13 06:51:36;;;;;;;1.27;1.23;;;;;;;16.32;51.37;95813.94;5096820;28;20476;-74
2022/10/13 06:54:03;;;;;;;5.60;2.23;;;;;;;16.66;51.01;95806.97;5103858;28;20475;-73
2022/10/13 06:56:32;;;;;;;7.83;3.47;;;;;;;16.57;50.56;95811.22;5101468;28;20440;-73
2022/10/13 06:59:02;;;;;;;2.43;2.23;;;;;;;16.83;49.98;95809.28;5105368;28;20437;-69
2022/10/13 07:01:29;;;;;;;1.53;1.43;;;;;;;16.85;49.71;95802.66;5099394;28;20568;-71
2022/10/13 07:03:57;;;;;;;2.20;2.10;;;;;;;17.22;49.44;95808.25;5095326;28;20485;-72
2022/10/13 07:06:24;;;;;;;0.77;0.77;;;;;;;17.02;49.13;95803.06;5100475;28;20552;-71
2022/10/13 07:08:52;;;;;;;1.53;1.43;;;;;;;16.95;49.41;95802.59;5094670;28;20446;-70
2022/10/13 07:11:19;;;;;;;0.70;0.70;;;;;;;17.28;49.01;95808.25;5106264;28;20440;-73
2022/10/13 07:13:52;;;;;;;3.70;2.50;;;;;;;17.36;48.48;95792.56;5095172;28;20524;-68
2022/10/13 07:16:19;;;;;;;3.30;1.83;;;;;;;17.31;48.60;95794.44;5109582;28;20811;-69
2022/10/13 07:18:47;;;;;;;6.70;2.13;;;;;;;17.13;48.65;95801.94;5096395;28;20444;-71
2022/10/13 07:21:14;;;;;;;1.40;1.30;;;;;;;17.03;49.37;95804.69;5108340;28;20432;-71
2022/10/13 07:23:41;;;;;;;1.77;1.67;;;;;;;17.38;48.44;95805.50;5097834;28;20473;-71
2022/10/13 07:26:12;;;;;;;3.63;3.13;;;;;;;17.18;48.96;95801.94;5103459;28;20464;-71
2022/10/13 07:28:40;;;;;;;1.03;1.00;;;;;;;17.35;48.60;95788.34;5100181;28;20471;-70
2022/10/13 07:31:13;;;;;;;2.67;2.47;;;;;;;17.78;47.82;95805.25;5109245;28;21024;-73
2022/10/13 07:33:43;;;;;;;3.53;3.10;;;;;;;17.45;48.85;95798.03;5109183;28;20448;-71
2022/10/13 07:36:10;;;;;;;2.60;2.23;;;;;;;17.39;48.26;95807.88;5108903;28;20487;-74
2022/10/13 07:38:38;;;;;;;2.13;1.43;;;;;;;17.53;48.51;95808.09;5100716;28;20444;-72
2022/10/13 07:41:08;;;;;;;1.13;1.13;;;;;;;16.99;50.08;95797.53;5088641;28;20997;-74
2022/10/13 07:43:34;;;;;;;4.60;2.03;;;;;;;17.73;48.21;95794.69;5088448;28;20476;-75
2022/10/13 07:46:04;;;;;;;1.37;1.30;;;;;;;17.41;48.98;95800.47;5107735;28;20463;-69
2022/10/13 07:48:32;;;;;;;0.77;0.77;;;;;;;17.67;48.39;95793.13;5097399;28;20437;-72
2022/10/13 07:51:10;;;;;;;1.63;1.23;;;;;;;18.36;47.21;95790.88;5098487;28;20452;-72
2022/10/13 07:53:39;;;;;;;1.93;1.83;;;;;;;17.53;48.46;95798.28;5103849;28;20580;-70
2022/10/13 07:56:09;;;;;;;1.37;1.30;;;;;;;17.30;49.28;95800.81;5091749;28;20502;-71
2022/10/13 07:58:37;;;;;;;1.63;1.53;;;;;;;18.11;47.82;95793.81;5087667;28;20449;-72
2022/10/13 08:01:05;;;;;;;2.10;1.93;;;;;;;18.48;47.12;95795.84;5088832;28;20878;-71
2022/10/13 08:03:37;;;;;;;1.57;1.30;;;;;;;17.69;48.97;95788.34;5103650;28;20448;-73
2022/10/13 08:06:13;;;;;;;0.73;0.73;;;;;;;17.86;48.30;95786.09;5107878;28;20435;-74
2022/10/13 08:08:40;;;;;;;5.00;2.17;;;;;;;18.84;46.33;95787.16;5094869;28;20518;-70
2022/10/13 08:11:12;;;;;;;4.60;1.60;;;;;;;18.29;47.42;95785.13;5088569;28;20506;-68
2022/10/13 08:13:46;;;;;;;4.13;3.70;;;;;;;18.71;46.79;95777.25;5105179;28;20531;-73
2022/10/13 08:16:18;;;;;;;1.10;1.00;;;;;;;19.39;45.30;95782.19;5092015;28;20462;-72
2022/10/13 08:18:45;;;;;;;1.00;1.00;;;;;;;19.30;44.35;95783.88;5105238;28;20441;-71
2022/10/13 08:21:15;;;;;;;1.37;1.27;;;;;;;19.84;44.14;95778.78;5112396;28;20531;-73
2022/10/13 08:24:02;;;;;;;2.60;2.30;;;;;;;20.03;43.52;95771.56;5112147;28;20459;-71
2022/10/13 08:26:29;;;;;;;1.60;1.33;;;;;;;20.14;42.96;95770.31;5112642;28;20471;-72
2022/10/13 08:28:56;;;;;;;0.83;0.83;;;;;;;19.52;44.33;95765.50;5112273;28;20487;-70
2022/10/13 08:31:43;;;;;;;0.87;0.87;;;;;;;20.06;43.57;95766.44;5099507;28;20468;-70
2022/10/13 08:34:11;;;;;;;0.93;0.93;;;;;;;19.78;43.96;95770.09;5098264;28;20587;-73
2022/10/13 08:36:38;;;;;;;9.43;1.60;;;;;;;20.12;43.14;95759.16;5097859;28;20895;-67
2022/10/13 08:39:05;;;;;;;1.03;1.03;;;;;;;20.17;42.61;95751.09;5099477;28;20457;-71
2022/10/13 08:41:39;;;;;;;2.40;2.20;;;;;;;19.78;43.42;95758.72;5091959;28;20446;-70
2022/10/13 08:44:17;;;;;;;2.87;1.90;;;;;;;20.30;43.16;95754.84;5105682;28;20457;-72
2022/10/13 08:47:23;;;;;;;3.10;1.33;;;;;;;20.84;41.25;95755.63;5105550;28;20467;-71
2022/10/13 08:49:50;;;;;;;13.93;1.57;;;;;;;20.44;42.06;95750.31;5099882;28;20850;-70
2022/10/13 08:52:24;;;;;;;1.40;1.33;;;;;;;20.18;43.22;95744.72;5097012;28;20444;-73
2022/10/13 08:54:53;;;;;;;1.47;1.37;;;;;;;19.91;44.50;95747.28;5112020;28;20920;-71
2022/10/13 08:57:22;;;;;;;1.53;1.43;;;;;;;19.83;43.42;95734.66;5111772;28;20436;-68
2022/10/13 08:59:51;;;;;;;1.30;0.77;;;;;;;20.23;43.48;95743.81;5101337;28;20498;-69
2022/10/13 09:02:28;;;;;;;2.10;1.53;;;;;;;20.43;41.34;95733.56;5109065;28;20440;-69
2022/10/13 09:04:58;;;;;;;1.47;1.37;;;;;;;20.73;40.87;95732.94;5111980;28;20501;-72
2022/10/13 09:07:28;;;;;;;2.93;2.40;;;;;;;20.23;41.45;95728.63;5111225;28;20472;-69
2022/10/13 09:09:55;;;;;;;2.07;1.80;;;;;;;20.49;42.01;95726.28;5101494;28;20533;-69
2022/10/13 09:12:24;;;;;;;1.40;1.30;;;;;;;20.75;41.38;95728.09;5090940;28;20450;-70
2022/10/13 09:14:57;;;;;;;0.90;0.90;;;;;;;20.30;43.24;95722.91;5091410;28;20607;-70
2022/10/13 09:17:26;;;;;;;5.17;2.47;;;;;;;19.92;44.10;95728.38;5092908;28;20797;-72
2022/10/13 09:20:04;;;;;;;2.63;2.30;;;;;;;20.82;41.65;95717.06;5103798;28;20590;-68
2022/10/13 09:22:33;;;;;;;1.60;1.50;;;;;;;20.60;42.42;95728.41;5105641;28;20668;-69
2022/10/13 09:25:05;;;;;;;2.57;2.30;;;;;;;20.52;42.30;95721.13;5098910;28;21003;-70
2022/10/13 09:27:44;;;;;;;1.83;1.40;;;;;;;20.84;41.89;95714.84;5111205;28;20471;-70
2022/10/13 09:30:31;;;;;;;2.20;1.90;;;;;;;21.54;40.96;95702.59;5111631;28;20467;-70
2022/10/13 09:33:08;;;;;;;0.37;0.37;;;;;;;21.60;40.89;95692.59;5107027;28;20441;-71
2022/10/13 09:35:36;;;;;;;1.47;1.37;;;;;;;22.03;38.82;95690.94;5102136;28;20443;-70
2022/10/13 09:38:04;;;;;;;1.07;1.07;;;;;;;22.23;38.70;95677.06;5110704;28;20531;-68
2022/10/13 09:40:32;;;;;;;2.03;1.47;;;;;;;22.63;37.88;95677.81;5109645;28;20464;-68
2022/10/13 09:43:01;;;;;;;1.23;1.10;;;;;;;22.88;38.15;95675.16;5098822;28;21019;-69
2022/10/13 09:45:29;;;;;;;1.23;1.13;;;;;;;21.99;39.55;95673.97;5110736;28;20989;-69
2022/10/13 09:48:18;;;;;;;1.00;0.90;;;;;;;22.36;38.68;95678.81;5110772;27;20482;-70
2022/10/13 09:50:51;;;;;;;2.00;1.23;;;;;;;22.41;39.32;95669.91;5094171;28;21096;-68
2022/10/13 09:53:24;;;;;;;0.53;0.53;;;;;;;21.52;40.11;95680.78;5103643;28;20928;-69
2022/10/13 09:56:15;;;;;;;0.87;0.83;;;;;;;22.25;38.77;95677.53;5096754;28;20461;-69
2022/10/13 09:59:04;;;;;;;0.53;0.53;;;;;;;22.47;38.00;95676.63;5108687;28;21030;-69
2022/10/13 10:01:36;;;;;;;4.13;0.67;;;;;;;23.06;37.61;95671.38;5090494;28;20441;-68
2022/10/13 10:04:09;;;;;;;2.17;1.67;;;;;;;22.81;37.42;95663.38;5109354;28;20198;-70
2022/10/13 10:06:39;;;;;;;0.80;0.80;;;;;;;23.26;37.07;95661.16;5110121;28;20946;-68
2022/10/13 10:09:36;;;;;;;2.03;1.67;;;;;;;23.60;36.19;95661.91;5097104;28;21141;-69
2022/10/13 10:12:05;;;;;;;0.50;0.50;;;;;;;23.38;36.24;95650.63;5096238;28;20444;-69
2022/10/13 10:14:35;;;;;;;1.73;1.37;;;;;;;23.38;36.19;95646.06;5077891;28;20999;-69
2022/10/13 10:17:32;;;;;;;2.70;1.97;;;;;;;24.09;36.09;95639.91;5097057;28;20532;-70
2022/10/13 10:20:37;;;;;;;1.60;0.83;;;;;;;24.17;35.82;95635.59;5089510;28;20512;-70
2022/10/13 10:23:03;;;;;;;0.77;0.77;;;;;;;23.74;35.63;95626.94;5095936;28;20653;-70
2022/10/13 10:25:38;;;;;;;1.40;1.20;;;;;;;23.75;36.49;95633.88;5110178;28;20205;-70
2022/10/13 10:28:30;;;;;;;1.10;1.00;;;;;;;24.06;35.94;95624.47;5103899;28;20359;-69
2022/10/13 10:31:09;;;;;;;0.83;0.60;;;;;;;24.21;35.51;95623.16;5104063;28;20197;-68
2022/10/13 10:33:54;;;;;;;0.73;0.73;;;;;;;24.16;35.04;95620.63;5089465;28;20203;-68
2022/10/13 10:36:32;;;;;;;0.80;0.80;;;;;;;24.03;35.08;95613.63;5103390;28;20195;-70
2022/10/13 10:39:18;;;;;;;0.57;0.57;;;;;;;23.91;35.70;95610.81;5101208;28;20244;-69
2022/10/13 10:41:59;;;;;;;1.43;1.33;;;;;;;23.93;35.61;95608.59;5090095;28;20639;-68
2022/10/13 10:44:38;;;;;;;1.87;1.43;;;;;;;23.78;35.60;95606.44;5103757;28;20913;-68
2022/10/13 10:47:28;;;;;;;1.33;1.27;;;;;;;23.31;35.76;95599.50;5103157;28;20214;-67
2022/10/13 10:50:06;;;;;;;0.70;0.70;;;;;;;23.04;37.47;95601.44;5110158;28;20191;-69
2022/10/13 10:53:21;;;;;;;0.73;0.73;;;;;;;23.42;37.80;95592.72;5096696;28;20448;-69
2022/10/13 10:55:51;;;;;;;25.27;1.50;;;;;;;23.60;36.63;95584.34;5090139;28;20626;-69
2022/10/13 10:58:34;;;;;;;1.67;1.53;;;;;;;23.62;35.73;95570.63;5109516;28;20798;-70
2022/10/13 11:01:13;;;;;;;1.17;0.97;;;;;;;24.04;35.94;95581.19;5102426;28;20437;-68
2022/10/13 11:04:20;;;;;;;0.37;0.33;;;;;;;24.25;36.12;95573.16;5103174;28;20202;-69
2022/10/13 11:06:47;;;;;;;0.40;0.40;;;;;;;24.70;35.46;95563.41;5102059;28;20489;-69
2022/10/13 11:09:40;;;;;;;0.60;0.60;;;;;;;24.85;35.03;95559.34;5109226;28;20305;-70
2022/10/13 11:13:07;;;;;;;1.80;1.10;;;;;;;24.78;34.80;95559.09;5109157;28;20579;-70
2022/10/13 11:15:45;;;;;;;0.97;0.97;;;;;;;24.11;34.82;95556.56;5094093;28;20218;-70
2022/10/13 11:18:49;;;;;;;1.17;0.97;;;;;;;24.76;34.45;95556.72;5097518;28;20198;-70
2022/10/13 11:21:18;;;;;;;1.60;0.83;;;;;;;24.48;34.55;95544.97;5107845;28;20209;-68
2022/10/13 11:23:48;;;;;;;1.13;1.03;;;;;;;24.71;34.12;95548.09;5096833;28;20561;-69
2022/10/13 11:26:42;;;;;;;0.47;0.47;;;;;;;25.43;33.62;95534.97;5086970;28;20195;-70
2022/10/13 11:29:45;;;;;;;0.70;0.70;;;;;;;24.53;35.07;95530.56;5098697;28;20930;-69
2022/10/13 11:32:24;;;;;;;1.03;0.47;;;;;;;25.13;33.81;95527.38;5108679;28;20198;-70
2022/10/13 11:35:03;;;;;;;0.70;0.70;;;;;;;24.57;33.92;95531.50;5109197;28;20197;-70
2022/10/13 11:38:05;;;;;;;0.87;0.57;;;;;;;25.13;33.34;95524.69;5108701;28;20749;-69
2022/10/13 11:41:01;;;;;;;0.37;0.37;;;;;;;24.77;33.64;95526.16;5097614;28;20251;-70
2022/10/13 11:44:19;;;;;;;0.70;0.70;;;;;;;24.56;33.14;95519.22;5101476;28;20281;-71
2022/10/13 11:47:07;;;;;;;0.60;0.60;;;;;;;24.43;33.70;95514.91;5094834;28;20240;-70
2022/10/13 11:50:06;;;;;;;0.60;0.50;;;;;;;24.83;32.37;95514.13;5112979;28;20728;-69
2022/10/13 11:53:19;;;;;;;1.30;1.17;;;;;;;24.72;33.08;95510.28;5098819;28;20202;-69
2022/10/13 11:55:56;;;;;;;0.97;0.87;;;;;;;25.58;31.99;95498.63;5113001;28;20206;-70
2022/10/13 11:58:31;;;;;;;0.33;0.33;;;;;;;25.59;32.63;95497.50;5099584;28;20252;-69
2022/10/13 12:01:00;;;;;;;0.30;0.30;;;;;;;25.50;33.03;95496.81;5099402;28;20224;-69
2022/10/13 12:03:33;;;;;;;0.73;0.73;;;;;;;26.01;32.59;95490.75;5112736;28;20211;-69
2022/10/13 12:06:03;;;;;;;0.10;0.10;;;;;;;25.57;33.01;95489.78;5098644;28;20289;-70